Time;durP1;ratioP1;P1;durP2;ratioP2;P2;SDS_P1;SDS_P2;PMS_P1;PMS_P2;Temp;Humidity;BMP_temperature;BMP_pressure;BME280_temperature;BME280_humidity;BME280_pressure;Samples;Min_cycle;Max_cycle;Signal;HPM_P1;HPM_P2
2022/08/12 00:43:25;;;;;;;4.00;1.70;;;20.70;99.90;;;;;;12326893;28;20058;-38
2022/08/12 00:49:29;;;;;;;4.50;1.67;;;20.70;99.90;;;;;;12324216;28;20106;-38
2022/08/12 00:55:31;;;;;;;3.20;1.70;;;20.60;99.90;;;;;;12318339;28;20458;-38
2022/08/12 01:01:36;;;;;;;3.92;1.58;;;20.50;99.90;;;;;;12328930;28;20141;-38
2022/08/12 01:14:24;;;;;;;6.13;1.70;;;20.10;99.90;;;;;;12336451;28;20051;-34
2022/08/12 01:20:37;;;;;;;3.45;1.60;;;20.10;99.90;;;;;;12330521;28;20479;-38
2022/08/12 01:26:42;;;;;;;4.07;1.90;;;20.20;99.90;;;;;;12328603;28;20043;-38
2022/08/12 01:32:47;;;;;;;5.55;1.80;;;20.20;99.90;;;;;;12332241;28;20090;-34
2022/08/12 01:38:50;;;;;;;4.82;1.90;;;20.00;99.90;;;;;;12335376;28;20100;-38
2022/08/12 01:44:53;;;;;;;6.10;1.83;;;20.00;99.90;;;;;;12328972;28;20051;-34
2022/08/12 01:51:12;;;;;;;6.00;2.03;;;20.00;99.90;;;;;;12340502;28;20074;-38
2022/08/12 01:57:53;;;;;;;4.80;2.08;;;19.90;99.90;;;;;;12336668;28;20510;-39
2022/08/12 02:17:23;;;;;;;5.75;1.98;;;20.00;99.90;;;;;;12330391;28;19944;-38
2022/08/12 02:23:46;;;;;;;;;;;20.10;99.90;;;;;;12338277;28;20508;-38
2022/08/12 02:29:48;;;;;;;5.82;2.35;;;20.20;99.90;;;;;;12338771;28;19925;-34
2022/08/12 02:35:50;;;;;;;4.97;1.83;;;20.30;99.90;;;;;;12335638;28;20043;-38
2022/08/12 02:41:55;;;;;;;3.78;2.10;;;20.30;99.90;;;;;;12322907;28;20126;-38
2022/08/12 02:48:05;;;;;;;4.20;1.70;;;20.20;99.90;;;;;;12346123;28;20054;-34
2022/08/12 02:54:07;;;;;;;6.05;2.00;;;20.20;99.90;;;;;;12333251;28;20059;-38
2022/08/12 03:00:11;;;;;;;8.02;1.90;;;20.10;99.90;;;;;;12334827;28;20066;-38
2022/08/12 03:06:20;;;;;;;5.50;2.00;;;20.30;99.90;;;;;;12336679;28;20062;-34
2022/08/12 03:12:23;;;;;;;4.07;1.90;;;20.20;99.90;;;;;;12332889;28;20389;-38
2022/08/12 03:18:30;;;;;;;4.35;2.38;;;20.30;99.90;;;;;;12344503;28;20059;-34
2022/08/12 03:24:34;;;;;;;4.40;2.28;;;20.30;99.90;;;;;;12332567;28;20047;-34
2022/08/12 03:30:42;;;;;;;3.15;2.20;;;20.30;99.90;;;;;;12331192;28;20050;-38
2022/08/12 03:36:46;;;;;;;7.10;1.90;;;20.10;99.90;;;;;;12340677;28;20055;-34
2022/08/12 04:01:58;;;;;;;9.00;2.00;;;19.60;99.90;;;;;;12338731;28;20512;-38
2022/08/12 04:08:00;;;;;;;5.78;2.35;;;19.50;99.90;;;;;;12327874;28;20050;-34
2022/08/12 04:14:11;;;;;;;9.48;2.35;;;19.50;99.90;;;;;;12333782;28;20051;-34
2022/08/12 04:20:18;;;;;;;4.22;2.30;;;19.40;99.90;;;;;;12325350;28;20066;-38
2022/08/12 04:26:20;;;;;;;5.22;2.10;;;19.30;99.90;;;;;;12331036;28;20522;-34
2022/08/12 04:32:22;;;;;;;3.92;2.38;;;19.20;99.90;;;;;;12329193;28;20141;-37
2022/08/12 04:38:24;;;;;;;3.58;2.30;;;19.10;99.90;;;;;;12323736;28;20710;-37
2022/08/12 04:44:26;;;;;;;3.45;2.00;;;18.90;99.90;;;;;;12328909;28;20105;-34
2022/08/12 04:50:29;;;;;;;3.92;2.35;;;18.80;99.90;;;;;;12336052;28;20176;-38
2022/08/12 04:56:36;;;;;;;4.88;2.30;;;18.80;99.90;;;;;;12318020;28;20466;-38
2022/08/12 05:02:39;;;;;;;6.47;2.60;;;18.90;99.90;;;;;;12327691;28;20052;-34
2022/08/12 05:08:41;;;;;;;3.60;2.47;;;18.90;99.90;;;;;;12328785;28;20074;-34
2022/08/12 05:14:43;;;;;;;6.45;2.53;;;18.90;99.90;;;;;;12323700;28;20058;-34
2022/08/12 05:20:47;;;;;;;6.15;2.70;;;18.80;99.90;;;;;;12326803;28;20042;-38
2022/08/12 05:26:50;;;;;;;7.32;2.92;;;18.90;99.90;;;;;;12334157;28;20043;-38
2022/08/12 05:32:54;;;;;;;9.05;3.10;;;18.60;99.90;;;;;;12340608;28;20498;-34
2022/08/12 05:39:01;;;;;;;5.38;2.50;;;18.80;99.90;;;;;;12343299;28;20074;-34
2022/08/12 05:45:03;;;;;;;10.75;2.67;;;18.90;99.90;;;;;;12333205;28;20059;-34
2022/08/12 05:51:05;;;;;;;6.68;2.67;;;18.90;99.90;;;;;;12337239;28;20475;-35
2022/08/12 05:57:06;;;;;;;7.95;2.60;;;19.00;99.90;;;;;;12338927;28;20176;-35
2022/08/12 06:03:08;;;;;;;6.72;2.80;;;19.10;99.90;;;;;;12341789;28;20086;-34
2022/08/12 06:09:11;;;;;;;9.65;2.80;;;19.20;99.90;;;;;;12338060;28;20070;-39
2022/08/12 06:15:12;;;;;;;6.20;2.53;;;19.30;99.90;;;;;;12343268;28;20164;-34
2022/08/12 06:21:20;;;;;;;7.75;2.60;;;19.30;99.90;;;;;;12338112;28;20047;-34
2022/08/12 06:27:21;;;;;;;6.30;2.53;;;19.30;99.90;;;;;;12334733;28;20411;-34
2022/08/12 06:33:23;;;;;;;7.60;2.45;;;19.40;99.90;;;;;;12304877;28;20051;-34
2022/08/12 06:39:45;;;;;;;5.47;2.42;;;19.40;99.90;;;;;;12319892;28;20179;-38
2022/08/12 06:45:48;;;;;;;7.57;2.58;;;19.40;99.90;;;;;;12333010;28;20053;-34
2022/08/12 06:51:53;;;;;;;8.18;2.55;;;19.60;99.90;;;;;;12334906;28;20090;-38
2022/08/12 06:58:00;;;;;;;8.20;2.90;;;19.80;99.90;;;;;;12333973;28;20516;-38
2022/08/12 07:04:13;;;;;;;9.32;2.60;;;20.00;99.90;;;;;;12335270;28;20557;-34
2022/08/12 07:10:53;;;;;;;5.85;2.55;;;20.10;99.90;;;;;;12333011;28;20125;-39
2022/08/12 07:16:56;;;;;;;7.47;2.30;;;20.30;99.90;;;;;;12324577;28;20109;-34
2022/08/12 07:22:59;;;;;;;4.85;1.98;;;20.40;99.90;;;;;;12316633;28;20070;-38
2022/08/12 07:29:01;;;;;;;7.28;2.22;;;20.70;99.90;;;;;;12331387;28;20134;-38
2022/08/12 07:35:04;;;;;;;8.88;2.10;;;20.90;99.90;;;;;;12327028;28;20046;-34
2022/08/12 07:41:09;;;;;;;7.28;2.47;;;21.20;99.90;;;;;;12328264;28;20707;-34
2022/08/12 07:47:17;;;;;;;7.03;2.10;;;21.40;99.90;;;;;;12331432;28;20047;-38
2022/08/12 07:53:19;;;;;;;3.47;1.88;;;21.60;99.90;;;;;;12337496;28;20492;-34
2022/08/12 07:59:22;;;;;;;6.93;2.13;;;21.80;99.90;;;;;;12325844;28;20123;-34
2022/08/12 08:05:27;;;;;;;10.50;2.80;;;22.00;99.90;;;;;;12325912;28;20326;-38
2022/08/12 08:18:03;;;;;;;7.38;1.90;;;22.30;99.90;;;;;;12329873;28;20059;-34
2022/08/12 08:24:13;;;;;;;3.53;1.98;;;22.50;99.90;;;;;;12327869;28;20142;-34
2022/08/12 08:30:15;;;;;;;7.63;2.25;;;22.70;99.90;;;;;;12330653;28;20135;-34
2022/08/12 08:36:17;;;;;;;3.72;1.88;;;22.90;99.90;;;;;;12328102;28;20455;-39
2022/08/12 08:42:38;;;;;;;5.32;2.40;;;23.20;99.90;;;;;;12326630;28;20460;-34
2022/08/12 08:48:41;;;;;;;6.50;1.90;;;23.40;99.90;;;;;;12329695;28;20058;-38
2022/08/12 08:54:43;;;;;;;3.35;1.70;;;23.60;99.90;;;;;;12338362;28;20105;-38
2022/08/12 09:00:48;;;;;;;3.83;1.50;;;24.70;99.90;;;;;;12340155;28;21099;-39
2022/08/12 09:06:53;;;;;;;5.97;1.65;;;25.70;99.90;;;;;;12334895;28;20055;-39
2022/08/12 09:13:27;;;;;;;3.30;1.50;;;26.20;99.90;;;;;;12332801;28;20054;-34
2022/08/12 09:19:49;;;;;;;4.00;1.35;;;26.50;99.90;;;;;;12347259;28;20399;-39
2022/08/12 09:26:11;;;;;;;3.67;1.40;;;26.80;99.90;;;;;;12341184;28;20059;-38
2022/08/12 09:32:13;;;;;;;2.60;1.50;;;26.80;99.90;;;;;;12342786;28;20059;-39
2022/08/12 09:38:34;;;;;;;6.88;1.88;;;27.00;99.90;;;;;;12343089;28;20051;-34
2022/08/12 09:51:18;;;;;;;5.88;1.33;;;27.00;99.90;;;;;;12335863;28;20055;-38
2022/08/12 09:57:24;;;;;;;4.25;2.00;;;27.20;99.90;;;;;;12338860;28;20046;-34
2022/08/12 10:03:48;;;;;;;5.20;1.67;;;27.50;99.90;;;;;;12340103;28;20046;-34
2022/08/12 10:10:04;;;;;;;2.33;1.52;;;27.60;99.90;;;;;;12337311;28;20062;-38
2022/08/12 10:16:18;;;;;;;3.15;1.55;;;28.00;99.90;;;;;;12287069;28;20137;-39
2022/08/12 10:22:23;;;;;;;2.58;1.35;;;28.20;99.90;;;;;;12337526;28;20050;-38
2022/08/12 10:35:04;;;;;;;4.20;1.40;;;28.10;99.90;;;;;;12334317;28;20076;-35
2022/08/12 10:47:52;;;;;;;3.25;1.55;;;28.20;99.40;;;;;;12335799;28;20050;-34
2022/08/12 10:54:15;;;;;;;2.90;1.70;;;28.30;99.90;;;;;;12335616;28;20101;-38
2022/08/12 11:00:19;;;;;;;5.80;1.73;;;28.50;99.90;;;;;;12329295;28;20830;-35
2022/08/12 11:06:37;;;;;;;2.80;1.50;;;28.60;99.90;;;;;;12335217;28;20599;-35
2022/08/12 11:12:59;;;;;;;4.22;1.25;;;28.80;97.50;;;;;;12330862;28;20490;-39
2022/08/12 11:19:03;;;;;;;5.30;1.55;;;28.80;99.90;;;;;;12331032;28;20418;-35
2022/08/12 11:25:09;;;;;;;4.43;1.42;;;28.70;97.40;;;;;;12319044;28;20081;-39
2022/08/12 11:31:12;;;;;;;5.82;1.40;;;28.60;96.00;;;;;;12320664;28;20236;-40
2022/08/12 11:37:15;;;;;;;2.97;1.50;;;28.90;96.20;;;;;;12325038;28;20105;-35
2022/08/12 11:43:27;;;;;;;3.92;1.40;;;29.30;96.80;;;;;;12332002;28;20181;-35
2022/08/12 11:49:31;;;;;;;7.78;1.63;;;29.20;97.60;;;;;;12331142;28;20050;-36
2022/08/12 11:55:33;;;;;;;3.35;1.50;;;29.20;96.00;;;;;;12328437;28;20557;-35
2022/08/12 12:01:47;;;;;;;5.38;1.25;;;28.90;95.00;;;;;;12327028;28;20126;-35
2022/08/12 12:08:05;;;;;;;4.43;1.30;;;29.10;97.10;;;;;;12322821;28;20061;-39
2022/08/12 12:14:26;;;;;;;3.57;1.30;;;29.00;95.40;;;;;;12328594;28;20419;-39
2022/08/12 12:20:38;;;;;;;3.67;1.30;;;29.40;95.80;;;;;;12328419;28;20061;-38
2022/08/12 12:26:41;;;;;;;;;;;29.10;94.10;;;;;;12329729;28;20125;-35
2022/08/12 12:32:43;;;;;;;3.35;1.30;;;29.30;94.50;;;;;;12327807;28;20025;-35
2022/08/12 12:38:54;;;;;;;3.85;1.38;;;29.50;94.10;;;;;;12333477;28;20531;-35
2022/08/12 12:44:56;;;;;;;6.85;1.50;;;29.50;93.10;;;;;;12334467;28;20094;-39
2022/08/12 12:51:16;;;;;;;5.80;1.63;;;29.50;92.60;;;;;;12336279;28;20780;-40
2022/08/12 12:57:42;;;;;;;5.40;1.20;;;29.60;92.10;;;;;;12322372;28;20047;-35
2022/08/12 13:04:02;;;;;;;3.45;1.40;;;29.90;92.00;;;;;;12334253;28;20051;-39
2022/08/12 13:10:04;;;;;;;4.10;1.13;;;29.60;92.00;;;;;;12315581;28;20607;-35
2022/08/12 13:16:07;;;;;;;4.18;1.35;;;29.60;91.20;;;;;;12305686;28;20426;-35
2022/08/12 13:22:19;;;;;;;4.00;1.50;;;29.30;91.00;;;;;;12330925;28;20483;-36
2022/08/12 13:28:27;;;;;;;4.13;1.45;;;29.60;90.30;;;;;;12330423;28;20057;-35
2022/08/12 13:34:29;;;;;;;2.47;1.17;;;29.80;90.30;;;;;;12329436;28;20046;-39
2022/08/12 13:40:38;;;;;;;4.35;1.45;;;29.90;86.50;;;;;;12333225;28;20086;-35
2022/08/12 13:46:40;;;;;;;6.40;1.52;;;29.80;90.10;;;;;;12342646;28;20482;-35
2022/08/12 13:52:43;;;;;;;3.45;1.15;;;29.80;89.50;;;;;;12334102;28;20074;-35
2022/08/12 13:58:50;;;;;;;4.57;1.40;;;29.70;89.30;;;;;;12342010;28;20047;-35
2022/08/12 14:04:53;;;;;;;4.18;1.40;;;29.50;89.00;;;;;;12337921;28;20081;-39
2022/08/12 14:10:57;;;;;;;2.58;1.30;;;29.40;87.30;;;;;;12337681;28;20082;-35
2022/08/12 14:17:01;;;;;;;7.35;1.50;;;29.30;88.90;;;;;;12332917;28;20058;-39
2022/08/12 14:23:06;;;;;;;3.80;1.42;;;29.50;88.80;;;;;;12330296;28;20419;-40
2022/08/12 14:29:30;;;;;;;2.92;1.20;;;29.40;88.10;;;;;;12327544;28;20055;-35
2022/08/12 14:35:52;;;;;;;5.05;1.30;;;29.50;88.10;;;;;;12334217;28;20046;-35
2022/08/12 14:41:55;;;;;;;3.88;1.27;;;29.30;87.20;;;;;;12334300;28;20055;-40
2022/08/12 14:47:58;;;;;;;4.78;1.23;;;29.30;88.10;;;;;;12337085;28;20051;-40
2022/08/12 14:54:00;;;;;;;1.98;1.20;;;29.50;87.20;;;;;;12335137;28;20087;-35
2022/08/12 15:06:51;;;;;;;3.63;1.48;;;29.40;90.00;;;;;;12338972;28;20177;-35
2022/08/12 15:12:54;;;;;;;;;;;29.40;87.10;;;;;;12330158;28;20396;-35
2022/08/12 15:18:56;;;;;;;4.97;1.42;;;29.30;85.80;;;;;;12330433;28;19922;-39
2022/08/12 15:25:00;;;;;;;6.75;1.40;;;29.20;87.00;;;;;;12329027;28;20055;-39
2022/08/12 15:31:05;;;;;;;3.13;1.35;;;29.30;90.60;;;;;;12335198;28;20062;-35
2022/08/12 15:37:27;;;;;;;3.72;1.25;;;29.10;87.90;;;;;;12335502;28;20058;-35
2022/08/12 15:43:50;;;;;;;6.63;1.40;;;29.00;86.70;;;;;;12330708;28;20058;-40
2022/08/12 15:50:11;;;;;;;4.60;1.38;;;29.00;87.10;;;;;;12329921;28;20083;-35
2022/08/12 15:56:23;;;;;;;6.50;1.17;;;28.80;85.70;;;;;;12331445;28;20182;-39
2022/08/12 16:02:39;;;;;;;5.05;1.02;;;28.80;85.50;;;;;;12330364;28;20059;-35
2022/08/12 16:08:51;;;;;;;7.18;1.45;;;28.80;85.80;;;;;;12326552;28;20495;-35
2022/08/12 16:14:56;;;;;;;5.28;1.40;;;28.80;87.40;;;;;;12330120;28;20543;-36
2022/08/12 16:20:58;;;;;;;5.30;1.50;;;28.90;85.80;;;;;;12318779;28;20097;-39
2022/08/12 16:27:00;;;;;;;9.15;1.10;;;28.90;88.30;;;;;;12319207;28;20050;-36
2022/08/12 16:33:15;;;;;;;4.10;1.10;;;28.80;87.20;;;;;;12313396;28;20062;-40
2022/08/12 16:39:18;;;;;;;3.75;0.90;;;28.80;86.20;;;;;;12323366;28;20105;-40
2022/08/12 16:45:23;;;;;;;6.20;1.27;;;29.00;88.00;;;;;;12330408;28;20054;-35
2022/08/12 16:51:45;;;;;;;4.63;1.00;;;28.80;86.20;;;;;;12319281;28;20050;-39
2022/08/12 16:57:49;;;;;;;3.42;0.98;;;29.00;88.40;;;;;;12325253;28;20051;-35
2022/08/12 17:04:07;;;;;;;2.92;0.82;;;28.80;88.60;;;;;;12339016;28;20086;-40
2022/08/12 17:10:12;;;;;;;2.28;0.82;;;28.70;86.50;;;;;;12334258;28;20427;-35
2022/08/12 17:16:19;;;;;;;1.67;0.77;;;28.70;86.40;;;;;;12331419;28;20526;-35
2022/08/12 17:22:29;;;;;;;2.50;0.80;;;28.50;87.20;;;;;;12330161;28;20069;-36
2022/08/12 17:28:32;;;;;;;1.50;0.63;;;28.30;87.80;;;;;;12333675;28;20047;-39
2022/08/12 17:40:56;;;;;;;4.07;1.02;;;27.90;88.20;;;;;;12340926;28;20145;-35
2022/08/12 17:46:58;;;;;;;5.70;0.70;;;27.80;87.20;;;;;;12332824;28;20483;-38
2022/08/12 17:53:02;;;;;;;3.65;0.63;;;27.90;90.10;;;;;;12332766;28;20059;-35
2022/08/12 17:59:09;;;;;;;3.00;0.65;;;27.70;86.70;;;;;;12338734;28;20178;-35
2022/08/12 18:05:14;;;;;;;3.88;0.68;;;27.60;88.50;;;;;;12338469;28;20055;-39
2022/08/12 18:18:07;;;;;;;4.97;0.57;;;27.00;88.80;;;;;;12341862;28;20057;-39
2022/08/12 18:24:18;;;;;;;1.37;0.53;;;26.90;89.70;;;;;;12335584;28;20488;-35
2022/08/12 18:30:25;;;;;;;3.13;0.50;;;26.70;90.40;;;;;;12338484;28;20403;-40
2022/08/12 18:36:30;;;;;;;1.80;0.60;;;26.50;90.60;;;;;;12326867;28;20208;-35
2022/08/12 18:42:33;;;;;;;1.40;0.50;;;26.40;90.20;;;;;;12339410;28;20074;-35
2022/08/12 18:48:38;;;;;;;1.23;0.50;;;26.30;91.10;;;;;;12332438;28;20059;-35
2022/08/12 18:54:44;;;;;;;3.88;0.70;;;26.20;90.80;;;;;;12325882;28;20137;-35
2022/08/12 19:00:54;;;;;;;2.45;0.70;;;26.10;92.70;;;;;;12335484;28;20085;-35
2022/08/12 19:06:57;;;;;;;4.00;1.08;;;26.00;92.40;;;;;;12335501;28;20051;-35
2022/08/12 19:19:26;;;;;;;4.50;1.20;;;25.80;94.10;;;;;;12333640;28;20051;-39
2022/08/12 19:25:38;;;;;;;3.33;0.65;;;25.70;93.20;;;;;;12335669;28;20047;-35
2022/08/12 19:32:01;;;;;;;4.18;0.63;;;25.60;94.30;;;;;;12334125;28;20438;-38
2022/08/12 19:38:05;;;;;;;2.83;0.68;;;25.50;92.80;;;;;;12333004;28;20101;-35
2022/08/12 19:44:08;;;;;;;2.75;0.82;;;25.30;92.90;;;;;;12325604;28;20646;-39
2022/08/12 19:50:19;;;;;;;4.45;0.85;;;25.10;93.20;;;;;;12332804;28;20077;-38
2022/08/12 19:56:21;;;;;;;1.23;0.60;;;25.10;94.00;;;;;;12332825;28;20100;-35
2022/08/12 20:02:34;;;;;;;2.45;0.70;;;25.10;95.20;;;;;;12333864;28;20053;-35
2022/08/12 20:08:36;;;;;;;2.90;0.80;;;25.20;96.80;;;;;;12319746;28;20097;-39
2022/08/12 20:14:41;;;;;;;5.07;0.75;;;25.10;96.10;;;;;;12332950;28;20134;-34
2022/08/12 20:20:45;;;;;;;2.70;0.80;;;25.00;96.30;;;;;;12334829;28;20137;-38
2022/08/12 20:26:47;;;;;;;4.45;0.98;;;24.70;96.40;;;;;;12326664;28;20054;-38
2022/08/12 20:32:53;;;;;;;4.85;0.95;;;24.60;96.60;;;;;;12329994;28;20538;-38
2022/08/12 20:38:59;;;;;;;2.95;0.68;;;24.50;97.10;;;;;;12333854;28;20106;-35
2022/08/12 20:45:03;;;;;;;3.20;0.70;;;24.40;97.00;;;;;;12331787;28;20042;-34
2022/08/12 20:51:15;;;;;;;3.08;0.85;;;24.30;98.10;;;;;;12328021;28;20055;-34
2022/08/12 20:57:21;;;;;;;3.78;0.80;;;24.10;97.60;;;;;;12323329;28;20063;-38
2022/08/12 21:10:00;;;;;;;2.55;0.90;;;23.60;96.90;;;;;;12330437;28;20055;-38
2022/08/12 21:16:04;;;;;;;1.30;0.70;;;23.70;98.50;;;;;;12337352;28;20067;-35
2022/08/12 21:22:06;;;;;;;4.97;1.10;;;23.60;97.30;;;;;;12321120;28;20086;-38
2022/08/12 21:28:25;;;;;;;2.85;0.70;;;23.60;98.10;;;;;;12327437;28;20051;-38
2022/08/12 21:34:31;;;;;;;2.30;0.70;;;23.70;98.10;;;;;;12330694;28;20051;-34
2022/08/12 21:40:33;;;;;;;2.05;0.90;;;23.70;98.60;;;;;;12327366;28;20113;-38
2022/08/12 21:46:50;;;;;;;3.00;0.60;;;23.70;98.90;;;;;;12327024;28;20089;-38
2022/08/12 21:52:56;;;;;;;4.47;0.95;;;23.80;99.40;;;;;;12330199;28;20430;-34
2022/08/12 21:58:58;;;;;;;5.88;1.00;;;23.80;99.90;;;;;;12336899;28;20130;-34
2022/08/12 22:11:24;;;;;;;4.00;0.70;;;23.60;99.90;;;;;;12334572;28;20663;-38
2022/08/12 22:17:43;;;;;;;0.95;0.60;;;23.50;99.90;;;;;;12323159;28;20483;-38
2022/08/12 22:23:51;;;;;;;3.00;0.70;;;23.30;99.90;;;;;;12332969;28;20607;-38
2022/08/12 22:36:28;;;;;;;5.25;0.95;;;23.00;99.90;;;;;;12295340;28;20135;-34
2022/08/12 22:48:52;;;;;;;3.63;0.70;;;22.70;99.90;;;;;;12325697;28;20066;-38
2022/08/12 22:54:57;;;;;;;4.45;0.90;;;22.60;99.90;;;;;;12337118;28;20074;-34
2022/08/12 23:01:05;;;;;;;1.13;0.70;;;22.70;99.90;;;;;;12328286;28;20061;-34
2022/08/12 23:07:07;;;;;;;2.88;0.80;;;22.50;99.90;;;;;;12343487;28;20062;-34
2022/08/12 23:19:45;;;;;;;3.10;0.80;;;22.50;99.90;;;;;;12336810;28;20407;-34
2022/08/12 23:25:49;;;;;;;1.95;0.80;;;22.40;99.90;;;;;;12330773;28;20134;-38
2022/08/12 23:31:59;;;;;;;3.65;0.70;;;22.40;99.90;;;;;;12333651;28;20054;-38
2022/08/12 23:38:05;;;;;;;2.40;0.70;;;22.50;99.90;;;;;;12332237;28;20051;-34
2022/08/12 23:44:06;;;;;;;4.03;0.73;;;22.40;99.90;;;;;;12325366;28;20113;-33
2022/08/12 23:50:09;;;;;;;5.63;0.88;;;22.20;99.90;;;;;;12327775;28;20124;-37
2022/08/12 23:56:17;;;;;;;3.55;1.08;;;22.00;99.90;;;;;;12327664;28;21193;-38
